createdAt,value
2019-04-14T00:01:48.173Z,100486.75
2019-04-14T00:04:16.250Z,100486.53
2019-04-14T00:06:44.183Z,100489.70
2019-04-14T00:09:14.091Z,100483.34
2019-04-14T00:11:44.126Z,100485.31
2019-04-14T00:14:10.273Z,100489.32
2019-04-14T00:16:36.584Z,100483.50
2019-04-14T00:19:02.931Z,100480.18
2019-04-14T00:21:30.161Z,100481.77
2019-04-14T00:23:56.685Z,100481.36
2019-04-14T00:26:33.514Z,100484.77
2019-04-14T00:29:00.217Z,100483.39
2019-04-14T00:31:28.414Z,100482.84
2019-04-14T00:33:56.685Z,100480.08
2019-04-14T00:36:39.805Z,100483.28
2019-04-14T00:39:14.648Z,100477.44
2019-04-14T00:41:58.569Z,100479.02
2019-04-14T00:44:40.979Z,100479.45
2019-04-14T00:47:09.359Z,100475.67
2019-04-14T00:49:35.528Z,100474.46
2019-04-14T00:52:01.807Z,100476.72
2019-04-14T00:54:28.248Z,100477.39
2019-04-14T00:56:54.539Z,100471.31
2019-04-14T00:59:22.050Z,100468.72
2019-04-14T01:01:48.656Z,100469.61
2019-04-14T01:04:14.888Z,100473.31
2019-04-14T01:06:41.017Z,100475.26
2019-04-14T01:09:10.688Z,100474.13
2019-04-14T01:11:37.872Z,100473.64
2019-04-14T01:14:04.143Z,100464.35
2019-04-14T01:16:30.257Z,100466.92
2019-04-14T01:18:56.490Z,100461.86
2019-04-14T01:21:22.701Z,100466.20
2019-04-14T01:23:50.092Z,100461.89
2019-04-14T01:26:16.373Z,100458.43
2019-04-14T01:28:43.956Z,100460.73
2019-04-14T01:31:10.210Z,100464.29
2019-04-14T01:33:36.411Z,100459.52
2019-04-14T01:36:03.844Z,100463.03
2019-04-14T01:38:30.161Z,100463.89
2019-04-14T01:40:56.289Z,100457.50
2019-04-14T01:43:23.495Z,100459.23
2019-04-14T01:46:03.986Z,100462.44
2019-04-14T01:48:19.258Z,100463.85
2019-04-14T01:51:02.748Z,100463.93
2019-04-14T01:53:33.757Z,100462.61
2019-04-14T01:56:12.255Z,100468.89
2019-04-14T01:58:43.197Z,100466.48
2019-04-14T02:01:11.244Z,100467.16
2019-04-14T02:03:38.760Z,100467.09
2019-04-14T02:06:05.125Z,100469.39
2019-04-14T02:08:32.899Z,100467.63
2019-04-14T02:10:59.076Z,100464.45
2019-04-14T02:13:25.344Z,100464.61
2019-04-14T02:15:52.781Z,100466.67
2019-04-14T02:18:19.130Z,100467.37
2019-04-14T02:20:45.334Z,100465.90
2019-04-14T02:23:12.570Z,100465.62
2019-04-14T02:25:38.793Z,100470.14
2019-04-14T02:28:04.947Z,100468.52
2019-04-14T02:30:39.214Z,100470.30
2019-04-14T02:33:32.204Z,100468.83
2019-04-14T02:36:01.596Z,100469.30
2019-04-14T02:40:57.968Z,100470.77
2019-04-14T02:43:27.559Z,100462.32
2019-04-14T02:48:33.334Z,100471.21
2019-04-14T02:50:40.303Z,100473.66
2019-04-14T02:53:20.904Z,100473.02
2019-04-14T02:55:46.796Z,100473.34
2019-04-14T02:58:14.955Z,100474.53
2019-04-14T03:03:16.814Z,100472.77
2019-04-14T03:05:34.364Z,100470.86
2019-04-14T03:08:00.055Z,100470.58
2019-04-14T03:13:02.286Z,100466.21
2019-04-14T03:15:20.068Z,100469.34
2019-04-14T03:18:18.830Z,100469.09
2019-04-14T03:20:24.373Z,100463.75
2019-04-14T03:23:14.326Z,100463.94
2019-04-14T03:25:22.653Z,100463.02
2019-04-14T03:27:59.170Z,100468.49
2019-04-14T03:30:57.759Z,100467.59
2019-04-14T03:38:13.097Z,100475.59
2019-04-14T03:40:37.730Z,100472.27
2019-04-14T03:43:03.153Z,100472.42
2019-04-14T03:45:37.824Z,100475.23
2019-04-14T03:48:16.822Z,100471.30
2019-04-14T03:50:21.610Z,100473.47
2019-04-14T03:52:59.636Z,100472.92
2019-04-14T03:55:11.397Z,100475.55
2019-04-14T03:57:27.063Z,100485.02
2019-04-14T03:59:52.680Z,100481.63
2019-04-14T04:02:18.895Z,100485.23
2019-04-14T04:04:45.058Z,100484.86
2019-04-14T04:07:12.383Z,100487.75
2019-04-14T04:09:43.532Z,100489.95
2019-04-14T04:12:09.837Z,100490.95
2019-04-14T04:14:35.967Z,100495.13
2019-04-14T04:17:04.075Z,100492.31
2019-04-14T04:19:41.057Z,100490.46
2019-04-14T04:22:26.081Z,100486.70
2019-04-14T04:25:11.590Z,100487.13
2019-04-14T04:27:52.621Z,100486.85
2019-04-14T04:30:36.309Z,100485.59
2019-04-14T04:33:22.012Z,100488.88
2019-04-14T04:35:59.167Z,100487.80
2019-04-14T04:38:27.219Z,100486.17
2019-04-14T04:40:54.997Z,100489.88
2019-04-14T04:43:21.318Z,100489.23
2019-04-14T04:45:47.471Z,100491.48
2019-04-14T04:48:15.132Z,100496.89
2019-04-14T04:50:41.343Z,100496.38
2019-04-14T04:53:07.573Z,100500.08
2019-04-14T04:55:33.722Z,100504.03
2019-04-14T04:58:01.247Z,100511.22
2019-04-14T05:00:27.680Z,100514.95
2019-04-14T05:02:55.299Z,100515.35
2019-04-14T05:06:13.341Z,100511.81
2019-04-14T05:08:41.693Z,100515.31
2019-04-14T05:11:09.761Z,100518.34
2019-04-14T05:13:38.177Z,100515.20
2019-04-14T05:16:04.324Z,100519.97
2019-04-14T05:18:31.315Z,100514.23
2019-04-14T05:20:57.568Z,100520.47
2019-04-14T05:23:23.835Z,100522.25
2019-04-14T05:25:50.049Z,100525.68
2019-04-14T05:28:17.704Z,100523.80
2019-04-14T05:30:44.038Z,100525.58
2019-04-14T05:33:10.245Z,100525.42
2019-04-14T05:35:36.408Z,100529.05
2019-04-14T05:38:03.838Z,100527.33
2019-04-14T05:40:30.281Z,100527.45
2019-04-14T05:42:56.479Z,100530.97
2019-04-14T05:45:22.635Z,100531.20
2019-04-14T05:47:50.023Z,100525.79
2019-04-14T05:50:16.419Z,100523.16
2019-04-14T05:52:42.621Z,100520.48
2019-04-14T05:55:08.995Z,100526.66
2019-04-14T05:57:35.255Z,100525.98
2019-04-14T06:00:05.895Z,100523.31
2019-04-14T06:02:33.500Z,100529.35
2019-04-14T06:04:59.819Z,100528.47
2019-04-14T06:07:25.981Z,100529.19
2019-04-14T06:09:52.168Z,100527.77
2019-04-14T06:12:18.383Z,100533.06
2019-04-14T06:14:44.881Z,100530.70
2019-04-14T06:17:11.027Z,100526.72
2019-04-14T06:19:40.546Z,100529.38
2019-04-14T06:22:05.288Z,100532.44
2019-04-14T06:24:31.517Z,100534.36
2019-04-14T06:26:57.994Z,100534.58
2019-04-14T06:29:24.224Z,100537.20
2019-04-14T06:31:57.971Z,100539.63
2019-04-14T06:34:28.790Z,100541.54
2019-04-14T06:36:59.742Z,100541.13
2019-04-14T06:39:27.883Z,100544.64
2019-04-14T06:41:54.146Z,100545.17
2019-04-14T06:44:20.352Z,100547.73
2019-04-14T06:46:46.495Z,100554.03
2019-04-14T06:49:12.731Z,100552.25
2019-04-14T06:51:38.876Z,100545.37
2019-04-14T06:54:05.164Z,100550.05
2019-04-14T06:56:31.297Z,100550.23
2019-04-14T06:58:57.503Z,100552.27
2019-04-14T07:01:23.653Z,100554.57
2019-04-14T07:03:49.803Z,100559.31
2019-04-14T07:06:16.373Z,100561.50
2019-04-14T07:08:42.520Z,100559.44
2019-04-14T07:11:08.725Z,100550.42
2019-04-14T07:13:34.984Z,100553.44
2019-04-14T07:16:08.203Z,100552.02
2019-04-14T07:18:34.444Z,100555.08
2019-04-14T07:21:07.600Z,100555.72
2019-04-14T07:23:34.246Z,100560.69
2019-04-14T07:26:00.944Z,100559.55
2019-04-14T07:28:27.455Z,100557.53
2019-04-14T07:31:01.585Z,100559.89
2019-04-14T07:33:32.731Z,100559.58
2019-04-14T07:36:17.361Z,100566.05
2019-04-14T07:38:45.734Z,100562.19
2019-04-14T07:41:16.762Z,100564.89
2019-04-14T07:43:47.487Z,100563.84
2019-04-14T07:46:21.556Z,100566.58
2019-04-14T07:49:06.400Z,100565.89
2019-04-14T07:51:37.492Z,100563.53
2019-04-14T07:54:05.466Z,100559.83
2019-04-14T07:56:52.115Z,100560.36
2019-04-14T07:59:20.154Z,100564.71
2019-04-14T08:02:00.543Z,100569.07
2019-04-14T08:04:37.511Z,100567.94
2019-04-14T08:07:03.822Z,100574.23
2019-04-14T08:09:29.991Z,100570.84
2019-04-14T08:11:57.031Z,100573.08
2019-04-14T08:14:23.173Z,100576.47
2019-04-14T08:16:49.472Z,100584.50
2019-04-14T08:19:15.615Z,100579.91
2019-04-14T08:21:41.826Z,100574.83
2019-04-14T08:24:07.988Z,100582.70
2019-04-14T08:26:34.253Z,100578.76
2019-04-14T08:29:00.418Z,100581.38
2019-04-14T08:31:26.626Z,100581.80
2019-04-14T08:33:53.054Z,100588.60
2019-04-14T08:36:19.514Z,100588.55
2019-04-14T08:38:45.683Z,100584.77
2019-04-14T08:41:11.900Z,100582.67
2019-04-14T08:43:45.908Z,100585.19
2019-04-14T08:46:22.772Z,100588.74
2019-04-14T08:48:51.041Z,100586.52
2019-04-14T08:51:21.804Z,100587.75
2019-04-14T08:53:49.847Z,100587.08
2019-04-14T08:56:29.961Z,100585.81
2019-04-14T08:59:06.541Z,100581.81
2019-04-14T09:01:37.524Z,100572.87
2019-04-14T09:04:14.509Z,100575.76
2019-04-14T09:06:42.629Z,100570.21
2019-04-14T09:09:26.109Z,100579.63
2019-04-14T09:12:00.514Z,100576.73
2019-04-14T09:14:26.727Z,100582.70
2019-04-14T09:16:52.924Z,100580.78
2019-04-14T09:19:19.063Z,100591.17
2019-04-14T09:21:45.207Z,100597.68
2019-04-14T09:24:11.419Z,100599.94
2019-04-14T09:26:37.570Z,100592.75
2019-04-14T09:29:03.815Z,100596.64
2019-04-14T09:31:29.950Z,100594.33
2019-04-14T09:33:56.154Z,100599.93
2019-04-14T09:36:22.299Z,100602.08
2019-04-14T09:38:48.505Z,100597.61
2019-04-14T09:41:14.648Z,100597.05
2019-04-14T09:43:40.879Z,100593.84
2019-04-14T09:46:07.010Z,100596.56
2019-04-14T09:48:33.226Z,100598.92
2019-04-14T09:51:04.915Z,100598.80
2019-04-14T09:53:27.487Z,100597.94
2019-04-14T09:55:53.627Z,100598.36
2019-04-14T09:58:19.869Z,100603.77
2019-04-14T10:00:46.338Z,100603.32
2019-04-14T10:03:12.549Z,100603.64
2019-04-14T10:05:38.748Z,100599.62
2019-04-14T10:08:05.029Z,100601.02
2019-04-14T10:10:31.193Z,100602.00
2019-04-14T10:12:57.687Z,100603.33
2019-04-14T10:15:23.843Z,100599.87
2019-04-14T10:17:50.040Z,100603.44
2019-04-14T10:20:16.443Z,100606.41
2019-04-14T10:22:42.654Z,100603.27
2019-04-14T10:25:08.961Z,100607.09
2019-04-14T10:27:35.164Z,100610.69
2019-04-14T10:30:02.876Z,100611.84
2019-04-14T10:32:29.030Z,100612.97
2019-04-14T10:34:55.248Z,100614.27
2019-04-14T10:37:21.634Z,100620.20
2019-04-14T10:39:47.847Z,100616.17
2019-04-14T10:42:14.239Z,100618.04
2019-04-14T10:44:40.464Z,100614.84
2019-04-14T10:47:06.984Z,100616.23
2019-04-14T10:49:33.181Z,100606.06
2019-04-14T10:51:59.719Z,100600.07
2019-04-14T10:54:26.212Z,100595.38
2019-04-14T10:56:52.343Z,100605.20
2019-04-14T10:59:18.549Z,100606.17
2019-04-14T11:01:44.694Z,100601.55
2019-04-14T11:04:11.027Z,100595.57
2019-04-14T11:06:48.203Z,100596.92
2019-04-14T11:09:14.978Z,100589.86
2019-04-14T11:11:41.188Z,100587.35
2019-04-14T11:14:07.404Z,100590.64
2019-04-14T11:16:33.629Z,100588.67
2019-04-14T11:18:59.763Z,100586.26
2019-04-14T11:21:25.960Z,100588.08
2019-04-14T11:23:52.098Z,100590.53
2019-04-14T11:26:18.316Z,100590.30
2019-04-14T11:28:44.462Z,100593.13
2019-04-14T11:31:11.194Z,100586.98
2019-04-14T11:33:45.250Z,100593.20
2019-04-14T11:36:13.684Z,100592.77
2019-04-14T11:38:44.635Z,100592.55
2019-04-14T11:41:12.752Z,100596.08
2019-04-14T11:43:38.888Z,100595.84
2019-04-14T11:46:05.115Z,100595.78
2019-04-14T11:48:31.258Z,100599.07
2019-04-14T11:50:57.466Z,100597.42
2019-04-14T11:53:23.599Z,100595.51
2019-04-14T11:55:50.195Z,100596.72
2019-04-14T11:58:16.333Z,100599.06
2019-04-14T12:01:02.815Z,100595.55
2019-04-14T12:03:32.488Z,100595.53
2019-04-14T12:06:01.024Z,100592.30
2019-04-14T12:08:29.070Z,100592.91
2019-04-14T12:10:55.287Z,100597.79
2019-04-14T12:13:21.496Z,100611.02
2019-04-14T12:15:48.008Z,100607.14
2019-04-14T12:18:14.158Z,100618.58
2019-04-14T12:20:40.303Z,100610.26
2019-04-14T12:23:06.559Z,100611.77
2019-04-14T12:25:32.699Z,100604.27
2019-04-14T12:28:00.045Z,100604.41
2019-04-14T12:30:26.919Z,100608.47
2019-04-14T12:32:53.176Z,100607.38
2019-04-14T12:35:19.526Z,100603.44
2019-04-14T12:37:45.753Z,100604.91
2019-04-14T12:40:12.831Z,100607.88
2019-04-14T12:42:49.913Z,100607.44
2019-04-14T12:45:33.299Z,100610.27
2019-04-14T12:48:02.680Z,100604.77
2019-04-14T12:50:30.736Z,100603.45
2019-04-14T12:52:57.456Z,100602.91
2019-04-14T12:55:23.608Z,100599.75
2019-04-14T12:57:54.765Z,100602.48
2019-04-14T13:00:38.107Z,100594.99
2019-04-14T13:03:04.811Z,100592.77
2019-04-14T13:05:31.273Z,100594.64
2019-04-14T13:07:57.488Z,100593.29
2019-04-14T13:10:23.642Z,100590.91
2019-04-14T13:12:49.855Z,100589.05
2019-04-14T13:15:16.083Z,100583.94
2019-04-14T13:17:42.246Z,100582.89
2019-04-14T13:20:09.803Z,100578.50
2019-04-14T13:22:36.009Z,100582.42
2019-04-14T13:25:02.519Z,100582.75
2019-04-14T13:27:28.764Z,100578.83
2019-04-14T13:29:54.947Z,100575.25
2019-04-14T13:32:21.087Z,100572.03
2019-04-14T13:34:47.595Z,100577.32
2019-04-14T13:37:14.040Z,100577.66
2019-04-14T13:39:40.226Z,100574.18
2019-04-14T13:42:06.387Z,100568.89
2019-04-14T13:44:32.840Z,100564.95
2019-04-14T13:46:59.036Z,100560.28
2019-04-14T13:49:25.515Z,100560.13
2019-04-14T13:51:51.657Z,100550.28
2019-04-14T13:54:17.968Z,100554.17
2019-04-14T13:56:44.134Z,100547.99
2019-04-14T13:59:10.602Z,100546.80
2019-04-14T14:01:36.737Z,100554.70
2019-04-14T14:04:03.163Z,100554.77
2019-04-14T14:06:29.353Z,100556.64
2019-04-14T14:08:55.815Z,100552.56
2019-04-14T14:11:27.265Z,100549.94
2019-04-14T14:14:01.440Z,100554.10
2019-04-14T14:16:46.286Z,100557.53
2019-04-14T14:19:20.526Z,100549.83
2019-04-14T14:21:48.570Z,100544.92
2019-04-14T14:24:22.496Z,100547.14
2019-04-14T14:26:56.448Z,100554.48
2019-04-14T14:29:22.670Z,100550.27
2019-04-14T14:31:49.281Z,100544.44
2019-04-14T14:34:15.450Z,100543.57
2019-04-14T14:36:41.671Z,100548.72
2019-04-14T14:39:09.622Z,100546.35
2019-04-14T14:41:36.128Z,100548.13
2019-04-14T14:44:02.520Z,100547.67
2019-04-14T14:46:36.769Z,100556.98
2019-04-14T14:49:03.879Z,100562.66
2019-04-14T14:51:34.652Z,100554.84
2019-04-14T14:54:00.815Z,100558.54
2019-04-14T14:56:27.063Z,100554.73
2019-04-14T14:58:53.185Z,100552.45
2019-04-14T15:01:19.510Z,100551.48
2019-04-14T15:03:46.039Z,100549.61
2019-04-14T15:06:12.600Z,100547.41
2019-04-14T15:08:38.732Z,100550.27
2019-04-14T15:11:04.963Z,100536.67
2019-04-14T15:13:31.183Z,100533.73
2019-04-14T15:15:57.414Z,100531.99
2019-04-14T15:18:23.802Z,100539.73
2019-04-14T15:20:50.288Z,100537.63
2019-04-14T15:23:24.768Z,100541.00
2019-04-14T15:25:44.566Z,100540.03
2019-04-14T15:28:10.775Z,100542.82
2019-04-14T15:30:37.003Z,100540.86
2019-04-14T15:33:03.484Z,100538.34
2019-04-14T15:35:30.433Z,100537.78
2019-04-14T15:37:56.669Z,100536.92
2019-04-14T15:40:22.820Z,100539.20
2019-04-14T15:42:49.037Z,100540.33
2019-04-14T15:45:15.505Z,100545.63
2019-04-14T15:48:01.684Z,100540.64
2019-04-14T15:50:27.903Z,100545.59
2019-04-14T15:52:54.125Z,100542.05
2019-04-14T15:55:20.280Z,100544.65
2019-04-14T15:58:05.462Z,100549.67
2019-04-14T16:00:39.511Z,100548.72
2019-04-14T16:03:10.698Z,100548.48
2019-04-14T16:05:41.704Z,100554.44
2019-04-14T16:08:12.800Z,100550.09
2019-04-14T16:10:56.126Z,100553.70
2019-04-14T16:13:40.969Z,100555.97
2019-04-14T16:16:09.248Z,100563.23
2019-04-14T16:18:52.559Z,100568.19
2019-04-14T16:21:18.715Z,100565.39
2019-04-14T16:23:50.647Z,100564.83
2019-04-14T16:26:15.403Z,100571.73
2019-04-14T16:28:43.802Z,100573.77
2019-04-14T16:31:26.797Z,100574.56
2019-04-14T16:34:11.698Z,100584.95
2019-04-14T16:36:37.840Z,100588.66
2019-04-14T16:39:05.395Z,100591.14
2019-04-14T16:41:31.613Z,100590.77
2019-04-14T16:43:57.885Z,100588.53
2019-04-14T16:46:24.043Z,100592.14
2019-04-14T16:48:50.270Z,100592.23
2019-04-14T16:51:18.409Z,100597.63
2019-04-14T16:53:46.572Z,100602.98
2019-04-14T16:56:26.810Z,100597.09
2019-04-14T16:58:55.029Z,100597.02
2019-04-14T17:01:26.086Z,100606.83
2019-04-14T17:03:52.312Z,100604.13
2019-04-14T17:06:18.463Z,100608.45
2019-04-14T17:08:44.690Z,100607.00
2019-04-14T17:11:10.826Z,100606.91
2019-04-14T17:13:39.145Z,100605.08
2019-04-14T17:16:24.025Z,100613.26
2019-04-14T17:18:52.210Z,100615.88
2019-04-14T17:21:20.257Z,100620.59
2019-04-14T17:23:48.414Z,100621.53
2019-04-14T17:26:28.698Z,100621.98
2019-04-14T17:28:57.318Z,100618.23
2019-04-14T17:31:25.360Z,100626.64
2019-04-14T17:33:56.337Z,100628.95
2019-04-14T17:36:24.489Z,100629.07
2019-04-14T17:38:55.465Z,100627.03
2019-04-14T17:41:26.400Z,100636.53
2019-04-14T17:43:57.372Z,100635.64
2019-04-14T17:46:40.657Z,100638.36
2019-04-14T17:49:11.684Z,100643.14
2019-04-14T17:51:46.043Z,100648.17
2019-04-14T17:54:14.098Z,100650.63
2019-04-14T17:56:48.199Z,100654.07
2019-04-14T17:59:19.213Z,100657.94
2019-04-14T18:01:53.499Z,100655.99
2019-04-14T18:04:33.470Z,100653.39
2019-04-14T18:07:05.949Z,100658.36
2019-04-14T18:09:39.745Z,100662.73
2019-04-14T18:12:14.027Z,100669.40
2019-04-14T18:15:00.566Z,100669.32
2019-04-14T18:17:28.987Z,100669.81
2019-04-14T18:20:09.275Z,100674.81
2019-04-14T18:22:35.524Z,100678.80
2019-04-14T18:25:03.372Z,100681.88
2019-04-14T18:27:31.544Z,100680.80
2019-04-14T18:29:59.598Z,100687.92
2019-04-14T18:32:27.779Z,100690.02
2019-04-14T18:35:07.681Z,100694.73
2019-04-14T18:37:51.124Z,100695.26
2019-04-14T18:40:35.620Z,100696.29
2019-04-14T18:43:12.769Z,100699.98
2019-04-14T18:45:42.878Z,100701.67
2019-04-14T18:48:13.834Z,100702.22
2019-04-14T18:50:41.874Z,100709.26
2019-04-14T18:53:22.300Z,100713.80
2019-04-14T18:55:59.587Z,100710.80
2019-04-14T18:58:44.632Z,100716.58
2019-04-14T19:01:12.695Z,100716.29
2019-04-14T19:03:39.199Z,100720.95
2019-04-14T19:06:05.612Z,100721.97
2019-04-14T19:08:31.843Z,100724.31
2019-04-14T19:11:15.168Z,100723.52
2019-04-14T19:13:49.409Z,100732.89
2019-04-14T19:16:38.534Z,100735.94
2019-04-14T19:18:56.727Z,100742.23
2019-04-14T19:21:24.765Z,100744.58
2019-04-14T19:23:51.057Z,100747.33
2019-04-14T19:26:17.204Z,100756.78
2019-04-14T19:28:43.432Z,100755.55
2019-04-14T19:31:09.669Z,100756.35
2019-04-14T19:33:35.926Z,100760.96
2019-04-14T19:36:02.055Z,100764.84
2019-04-14T19:38:28.563Z,100764.13
2019-04-14T19:40:54.741Z,100765.28
2019-04-14T19:43:23.847Z,100764.88
2019-04-14T19:45:49.348Z,100769.59
2019-04-14T19:48:15.564Z,100766.03
2019-04-14T19:50:42.151Z,100771.41
2019-04-14T19:53:08.304Z,100771.99
2019-04-14T19:55:37.139Z,100773.83
2019-04-14T19:58:02.623Z,100778.94
2019-04-14T20:00:28.921Z,100776.13
2019-04-14T20:02:55.096Z,100779.09
2019-04-14T20:05:21.307Z,100780.32
2019-04-14T20:07:47.469Z,100779.34
2019-04-14T20:10:14.016Z,100781.52
2019-04-14T20:12:40.505Z,100786.05
2019-04-14T20:15:08.823Z,100789.70
2019-04-14T20:17:36.894Z,100786.95
2019-04-14T20:20:13.741Z,100787.97
2019-04-14T20:22:57.473Z,100787.31
2019-04-14T20:25:33.966Z,100789.53
2019-04-14T20:27:58.389Z,100789.40
2019-04-14T20:30:29.354Z,100797.92
2019-04-14T20:32:55.498Z,100801.31
2019-04-14T20:35:21.718Z,100798.69
2019-04-14T20:37:47.910Z,100801.08
2019-04-14T20:40:14.317Z,100805.95
2019-04-14T20:42:40.501Z,100802.72
2019-04-14T20:45:09.065Z,100811.38
2019-04-14T20:47:35.232Z,100811.19
2019-04-14T20:50:02.171Z,100808.80
2019-04-14T20:52:28.573Z,100813.17
2019-04-14T20:54:54.780Z,100816.23
2019-04-14T20:57:21.156Z,100821.58
2019-04-14T20:59:47.294Z,100824.82
2019-04-14T21:02:21.629Z,100825.89
2019-04-14T21:04:58.804Z,100830.77
2019-04-14T21:07:43.339Z,100829.19
2019-04-14T21:10:11.474Z,100832.40
2019-04-14T21:12:54.962Z,100841.75
2019-04-14T21:15:29.118Z,100842.25
2019-04-14T21:17:57.242Z,100847.92
2019-04-14T21:20:25.350Z,100834.44
2019-04-14T21:22:53.527Z,100839.63
2019-04-14T21:25:38.107Z,100842.48
2019-04-14T21:28:18.354Z,100843.36
2019-04-14T21:30:58.291Z,100838.93
2019-04-14T21:33:29.091Z,100845.52
2019-04-14T21:35:57.151Z,100848.92
2019-04-14T21:38:27.928Z,100849.25
2019-04-14T21:40:55.960Z,100847.66
2019-04-14T21:43:22.177Z,100849.39
2019-04-14T21:45:48.307Z,100855.63
2019-04-14T21:48:14.526Z,100855.95
2019-04-14T21:50:40.664Z,100855.14
2019-04-14T21:53:07.260Z,100864.11
2019-04-14T21:55:33.395Z,100862.06
2019-04-14T21:58:01.499Z,100866.12
2019-04-14T22:01:05.680Z,100868.05
2019-04-14T22:03:34.006Z,100872.95
2019-04-14T22:06:04.728Z,100875.03
2019-04-14T22:08:33.166Z,100877.95
2019-04-14T22:11:04.399Z,100879.02
2019-04-14T22:13:30.733Z,100877.80
2019-04-14T22:15:57.279Z,100885.52
2019-04-14T22:18:23.508Z,100886.74
2019-04-14T22:20:49.777Z,100888.69
2019-04-14T22:23:16.042Z,100891.67
2019-04-14T22:25:42.168Z,100890.48
2019-04-14T22:28:08.574Z,100891.63
2019-04-14T22:30:34.745Z,100895.48
2019-04-14T22:33:00.937Z,100893.56
2019-04-14T22:35:27.188Z,100896.64
2019-04-14T22:37:53.333Z,100903.58
2019-04-14T22:40:19.554Z,100904.85
2019-04-14T22:42:45.695Z,100901.72
2019-04-14T22:45:12.116Z,100907.80
2019-04-14T22:47:38.234Z,100911.95
2019-04-14T22:50:05.035Z,100916.86
2019-04-14T22:52:31.256Z,100910.53
2019-04-14T22:54:57.751Z,100916.41
2019-04-14T22:57:23.898Z,100916.38
2019-04-14T22:59:50.436Z,100915.48
2019-04-14T23:02:27.485Z,100914.52
2019-04-14T23:05:13.944Z,100917.17
2019-04-14T23:07:41.998Z,100920.71
2019-04-14T23:10:26.925Z,100917.64
2019-04-14T23:12:57.931Z,100920.27
2019-04-14T23:15:26.447Z,100924.00
2019-04-14T23:17:54.501Z,100922.25
2019-04-14T23:20:25.723Z,100924.70
2019-04-14T23:23:10.576Z,100922.63
2019-04-14T23:25:36.789Z,100918.95
2019-04-14T23:28:02.906Z,100920.11
2019-04-14T23:30:29.131Z,100918.58
2019-04-14T23:32:55.283Z,100923.94
2019-04-14T23:35:21.497Z,100924.06
2019-04-14T23:37:47.677Z,100931.02
2019-04-14T23:40:14.052Z,100930.59
2019-04-14T23:42:40.205Z,100933.62
2019-04-14T23:45:06.826Z,100935.11
2019-04-14T23:47:32.956Z,100933.91
2019-04-14T23:49:59.142Z,100933.78
2019-04-14T23:52:25.408Z,100935.97
2019-04-14T23:54:51.613Z,100936.02
2019-04-14T23:57:17.744Z,100940.11
2019-04-14T23:59:43.980Z,100939.76
